Sunday, October 21, 2018, 10:28 PM CDT
Back to Local

KC09, Morris, Morris Municipal-james R Washburn Field Airport

Location: Morris, IL, United States Lat: 41.425
Local Time: 10:28 PM CDT ( 3:28 GMT) Lon: -88.419
Time Zone: US/Central Elev: 583 ft

Show me the last for .
Show Coded

Time T Td Feel RH Dir Speed Gust Alt SLP Vis Weather Sky Remarks
2018-10-21 22:15 39 26 34 60 210° 7 - 30.13 - 10 CLR None
2018-10-21 21:55 39 26 34 58 220° 7 - 30.13 - 10 CLR None
2018-10-21 21:35 40 26 34 57 220° 8 - 30.13 - 10 CLR None
2018-10-21 21:15 41 26 36 55 240° 7 - 30.13 - 10 CLR None
2018-10-21 20:55 42 26 37 53 230° 7 - 30.11 - 10 CLR None
2018-10-21 20:35 41 27 36 56 200° 7 - 30.10 - 10 CLR None
2018-10-21 20:15 42 26 37 53 190° 8 - 30.10 - 10 CLR None
2018-10-21 19:55 43 26 38 50 190° 8 - 30.11 - 10 CLR None
2018-10-21 19:35 43 26 38 50 190° 9 - 30.11 - 10 CLR None
2018-10-21 19:15 44 26 39 48 190° 8 - 30.12 - 10 CLR None
2018-10-21 18:55 45 25 41 45 200° 8 - 30.12 - 10 CLR 6-hr Min Temp (7pm): 44.8°F
6-hr Max Temp (7pm): 52.0°F
2018-10-21 18:35 45 25 40 45 200° 9 - 30.12 - 10 CLR None
2018-10-21 18:15 47 24 42 39 210° 9 - 30.13 - 10 CLR None
2018-10-21 17:55 48 23 44 36 210° 10 - 30.13 - 10 CLR None
2018-10-21 17:35 49 23 43 34 200° 13 18 30.13 - 10 CLR None
2018-10-21 17:15 50 23 - 34 190° 9 - 30.13 - 10 CLR None
2018-10-21 16:55 51 22 - 32 210° 13 - 30.14 - 10 CLR None
2018-10-21 16:35 51 22 - 31 210° 17 - 30.14 - 10 CLR None
2018-10-21 16:15 51 21 - 30 210° 14 18 30.17 - 10 CLR None
2018-10-21 15:55 51 21 - 30 210° 17 21 30.18 - 10 CLR None
2018-10-21 15:35 52 21 - 29 220° 13 - 30.18 - 10 CLR None
2018-10-21 15:15 51 22 - 31 220° 14 20 30.19 - 10 CLR None
2018-10-21 14:55 51 22 - 31 240° 12 18 30.21 - 10 CLR None
2018-10-21 14:35 51 23 - 32 210° 10 17 30.22 - 10 CLR None
2018-10-21 14:15 50 22 44 33 210° 10 18 30.23 - 10 CLR None
2018-10-21 13:55 49 22 43 33 210° 10 21 30.25 - 10 CLR None
2018-10-21 13:35 49 23 43 35 220° 13 17 30.26 - 10 CLR None
2018-10-21 13:15 47 22 44 36 230° 7 - 30.28 - 10 CLR None
2018-10-21 12:55 47 22 40 37 230° 8 18 30.30 - 10 CLR 6-hr Min Temp (1pm): 22.6°F
6-hr Max Temp (1pm): 47.5°F
2018-10-21 12:35 46 22 39 38 250° 14 17 30.31 - 10 CLR None
2018-10-21 12:15 45 21 40 38 240° 10 - 30.33 - 10 CLR None
2018-10-21 11:55 46 24 41 41 240° 9 - 30.34 - 10 CLR None
2018-10-21 11:35 44 24 41 43 220° 6 - 30.35 - 10 CLR None
2018-10-21 11:15 43 22 39 44 220° 7 - 30.36 - 10 CLR None
2018-10-21 10:55 42 23 36 46 220° 9 - 30.36 - 10 CLR None
2018-10-21 10:35 40 22 35 48 200° 8 - 30.36 - 10 CLR None
2018-10-21 10:15 40 23 36 50 200° 5 - 30.36 - 10 CLR None
2018-10-21 09:55 38 24 33 54 200° 7 - 30.37 - 10 CLR None
2018-10-21 09:35 37 26 33 64 210° 5 - 30.38 - 10 CLR None
2018-10-21 09:15 35 28 32 76 230° 3 - 30.38 - 10 CLR None
2018-10-21 08:55 32 26 29 78 210° 3 - 30.37 - 10 CLR None
2018-10-21 08:35 29 24 - 79 - Calm - 30.37 - 10 CLR None
2018-10-21 08:15 27 22 23 82 270° 3 - 30.38 - 10 CLR None
2018-10-21 07:55 25 21 - 85 - Calm - 30.37 - 10 CLR None
2018-10-21 07:35 24 20 19 86 230° 3 - 30.37 - 10 CLR None
2018-10-21 07:15 23 19 18 85 220° 3 - 30.37 - 10 CLR None
2018-10-21 06:55 23 19 - 84 - Calm - 30.38 - 10 CLR 6-hr Min Temp (7am): 21.6°F
6-hr Max Temp (7am): 25.7°F
2018-10-21 06:35 23 20 - 88 - Calm - 30.37 - 10 CLR None
2018-10-21 06:15 23 19 - 83 - Calm - 30.36 - 10 CLR None
2018-10-21 05:55 26 20 21 78 300° 3 - 30.37 - 10 CLR None
2018-10-21 05:35 25 20 20 82 290° 3 - 30.37 - 10 CLR None
2018-10-21 05:15 24 20 16 85 290° 7 - 30.38 - 10 CLR None
2018-10-21 04:55 25 20 20 80 310° 3 - 30.36 - 10 CLR None
2018-10-21 04:35 24 20 20 83 320° 3 - 30.37 - 10 CLR None
2018-10-21 04:15 23 20 16 87 310° 6 - 30.38 - 10 CLR None
2018-10-21 03:55 24 20 15 85 290° 7 - 30.38 - 10 CLR None
2018-10-21 03:35 24 20 18 85 310° 5 - 30.37 - 10 CLR None
2018-10-21 03:15 24 20 16 85 290° 7 - 30.37 - 10 CLR None
2018-10-21 02:55 24 20 17 85 290° 6 - 30.36 - 10 CLR None
2018-10-21 02:35 24 20 17 84 300° 6 - 30.36 - 10 CLR None
2018-10-21 02:15 25 21 19 84 300° 5 - 30.36 - 10 CLR None
2018-10-21 01:55 24 21 18 87 280° 5 - 30.36 - 10 CLR None
2018-10-21 01:35 24 20 19 84 280° 5 - 30.35 - 10 CLR None
2018-10-21 01:15 25 20 18 82 310° 6 - 30.34 - 10 CLR None
2018-10-21 00:55 25 21 19 83 310° 5 - 30.35 - 10 CLR 6-hr Min Temp (1am): 24.6°F
6-hr Max Temp (1am): 37.2°F
2018-10-21 00:35 25 21 17 84 280° 7 - 30.35 - 10 CLR None
2018-10-21 00:15 26 21 19 80 300° 6 - 30.34 - 10 CLR None
2018-10-20 23:55 27 21 19 79 300° 7 - 30.34 - 10 CLR None
2018-10-20 23:35 28 21 22 76 270° 5 - 30.34 - 10 CLR None
2018-10-20 23:15 28 21 22 77 280° 5 - 30.34 - 10 CLR None
2018-10-20 22:55 27 21 23 77 280° 3 - 30.34 - 10 CLR None
2018-10-20 22:35 27 21 22 77 310° 5 - 30.33 - 10 CLR None

Support USWX by starting your Amazon purchase here.